Home > Products > Valid Products > TAF

000
FTUS41 KCAR 270030 AAA
TAFCAR
TAF AMD
KCAR 270030Z 2701/2724 36006KT 6SM -SHRA OVC012
     FM270500 35006KT 3SM -SHRA SCT008 OVC010
     FM271300 03010KT 3SM -SHRA OVC008
     FM271700 04014KT P6SM OVC015
     FM271800 04014G21KT P6SM OVC015=



000
FTUS41 KCAR 262320
TAFBHB
TAF
KBHB 262320Z 2700/2724 34004KT P6SM BKN045
     FM270500 34005KT P6SM OVC020
     FM270900 35006KT P6SM OVC010
     FM271400 36007KT P6SM OVC020
     FM271600 01008KT 3SM -SHRA OVC015
     FM272200 01010KT P6SM OVC020
      AMD LTD TO CLD VIS AND WIND=



000
FTUS41 KCAR 262320
TAFBGR
TAF
KBGR 262320Z 2700/2724 34004KT P6SM BKN045
     FM270500 34005KT P6SM OVC020
     FM270900 35006KT P6SM OVC010
     FM271400 36007KT P6SM OVC020
     FM271600 01008KT 3SM -SHRA OVC015
     FM272200 01010KT P6SM OVC020=



000
FTUS41 KCAR 262320
TAFHUL
TAF
KHUL 262320Z 2700/2724 36005KT 6SM -SHRA SCT010 OVC020
     FM270500 35006KT 5SM -SHRA OVC008
     FM270800 35006KT 3SM -SHRA OVC005
     FM271700 03010KT 4SM -SHRA OVC010
     FM272100 02012KT P6SM OVC015=



000
FTUS41 KCAR 262320
TAFPQI
TAF
KPQI 262320Z 2700/2724 36006KT 6SM -SHRA SCT015 OVC035
     FM270500 35006KT 3SM -SHRA SCT008 OVC015
     FM271300 03010KT 3SM -SHRA OVC008
     FM271700 04014KT P6SM OVC015
     FM271800 04014G21KT P6SM OVC015
      AMD LTD TO CLD VIS AND WIND=



000
FTUS41 KCAR 262320
TAFCAR
TAF
KCAR 262320Z 2700/2724 36006KT 6SM -SHRA SCT015 OVC035
     FM270500 35006KT 3SM -SHRA SCT008 OVC015
     FM271300 03010KT 3SM -SHRA OVC008
     FM271700 04014KT P6SM OVC015
     FM271800 04014G21KT P6SM OVC015=



000
FTUS41 KCAR 262320
TAFHUL
TAF
KHUL 262320Z 2700/2724 36005KT 6SM -SHRA SCT010 OVC020
     FM270500 35006KT 5SM -SHRA OVC008
     FM270800 35006KT 3SM -SHRA OVC005
     FM271700 03010KT 4SM -SHRA OVC010
     FM272100 02012KT P6SM OVC015=



000
FTUS41 KCAR 262320
TAFPQI
TAF
KPQI 262320Z 2700/2724 36006KT 6SM -SHRA SCT015 OVC035
     FM270500 35006KT 3SM -SHRA SCT008 OVC015
     FM271300 03010KT 3SM -SHRA OVC008
     FM271700 04014KT P6SM OVC015
     FM271800 04014G21KT P6SM OVC015
      AMD LTD TO CLD VIS AND WIND=



000
FTUS41 KCAR 262320
TAFBGR
TAF
KBGR 262320Z 2700/2724 34004KT P6SM BKN045
     FM270500 34005KT P6SM OVC020
     FM270900 35006KT P6SM OVC010
     FM271400 36007KT P6SM OVC020
     FM271600 01008KT 3SM -SHRA OVC015
     FM272200 01010KT P6SM OVC020=



000
FTUS41 KCAR 262320
TAFCAR
TAF
KCAR 262320Z 2700/2724 36006KT 6SM -SHRA SCT015 OVC035
     FM270500 35006KT 3SM -SHRA SCT008 OVC015
     FM271300 03010KT 3SM -SHRA OVC008
     FM271700 04014KT P6SM OVC015
     FM271800 04014G21KT P6SM OVC015=



000
FTUS41 KCAR 262320
TAFBHB
TAF
KBHB 262320Z 2700/2724 34004KT P6SM BKN045
     FM270500 34005KT P6SM OVC020
     FM270900 35006KT P6SM OVC010
     FM271400 36007KT P6SM OVC020
     FM271600 01008KT 3SM -SHRA OVC015
     FM272200 01010KT P6SM OVC020
      AMD LTD TO CLD VIS AND WIND=



000
FTUS41 KCAR 261734
TAFHUL
TAF
KHUL 261734Z 2618/2718 35004KT P6SM -SHRA BKN025 OVC035
     FM270600 35006KT 5SM -SHRA BKN009 OVC012
     FM271400 03010KT 6SM -SHRA OVC015=



000
FTUS41 KCAR 261734
TAFBHB
TAF
KBHB 261734Z 2618/2718 VRB03KT P6SM SCT040 OVC050
     FM270400 32005KT P6SM OVC030
     FM270600 35004KT P6SM SCT009 OVC015
     FM271400 36006KT P6SM OVC025
      AMD LTD TO CLD VIS AND WIND=



000
FTUS41 KCAR 261734
TAFBGR
TAF
KBGR 261734Z 2618/2718 36004KT P6SM -SHRA BKN028 OVC045
     FM270000 34005KT P6SM OVC020
     FM270900 35006KT P6SM SCT009 OVC015
     FM271400 36008KT 6SM -SHRA OVC025=



000
FTUS41 KCAR 261734
TAFPQI
TAF
KPQI 261734Z 2618/2718 34008KT P6SM BKN025 OVC035
     FM270600 35006KT 5SM -SHRA SCT009 OVC015
     FM271400 03010KT 6SM -SHRA OVC015
      AMD LTD TO CLD VIS AND WIND=



000
FTUS41 KCAR 261734
TAFCAR
TAF
KCAR 261734Z 2618/2718 03006KT P6SM -SHRA BKN025 OVC035
     FM270500 35006KT 5SM -SHRA BKN009 OVC015
     FM271200 03010KT 6SM -SHRA SCT009 OVC015
     FM271600 04012G22KT P6SM OVC015=



000
FTUS41 KCAR 261734
TAFPQI
TAF
KPQI 261734Z 2618/2718 34008KT P6SM BKN025 OVC035
     FM270600 35006KT 5SM -SHRA SCT009 OVC015
     FM271400 03010KT 6SM -SHRA OVC015
      AMD LTD TO CLD VIS AND WIND=



000
FTUS41 KCAR 261734
TAFCAR
TAF
KCAR 261734Z 2618/2718 03006KT P6SM -SHRA BKN025 OVC035
     FM270500 35006KT 5SM -SHRA BKN009 OVC015
     FM271200 03010KT 6SM -SHRA SCT009 OVC015
     FM271600 04012G22KT P6SM OVC015=



000
FTUS41 KCAR 261734
TAFHUL
TAF
KHUL 261734Z 2618/2718 35004KT P6SM -SHRA BKN025 OVC035
     FM270600 35006KT 5SM -SHRA BKN009 OVC012
     FM271400 03010KT 6SM -SHRA OVC015=



000
FTUS41 KCAR 261734
TAFBHB
TAF
KBHB 261734Z 2618/2718 VRB03KT P6SM SCT040 OVC050
     FM270400 32005KT P6SM OVC030
     FM270600 35004KT P6SM SCT009 OVC015
     FM271400 36006KT P6SM OVC025
      AMD LTD TO CLD VIS AND WIND=



000
FTUS41 KCAR 261734
TAFBGR
TAF
KBGR 261734Z 2618/2718 36004KT P6SM -SHRA BKN028 OVC045
     FM270000 34005KT P6SM OVC020
     FM270900 35006KT P6SM SCT009 OVC015
     FM271400 36008KT 6SM -SHRA OVC025=



000
FTUS41 KCAR 261537 AAA
TAFHUL
TAF AMD
KHUL 261537Z 2616/2712 35008KT P6SM BKN025 OVC040=



000
FTUS41 KCAR 261347 AAA
TAFBGR
TAF AMD
KBGR 261347Z 2614/2712 32005KT P6SM BKN025 OVC050
     FM261800 32005KT P6SM BKN050=



000
FTUS41 KCAR 261347 AAA
TAFBGR
TAF AMD
KBGR 261347Z 2614/2712 32005KT P6SM BKN025 OVC050
     FM261800 32005KT P6SM BKN050=



000
FTUS41 KCAR 261120
TAFCAR
TAF
KCAR 261120Z 2612/2712 31004KT P6SM OVC014
     FM261600 36007KT P6SM SCT025 BKN050
     FM270300 VRB03KT P6SM OVC007=



000
FTUS41 KCAR 261120
TAFPQI
TAF
KPQI 261120Z 2612/2712 36003KT P6SM BKN013
     FM261500 36004KT P6SM SCT025 BKN050
      AMD LTD TO CLD VIS AND WIND=



000
FTUS41 KCAR 261120
TAFBGR
TAF
KBGR 261120Z 2612/2712 28003KT P6SM BKN035
     FM261500 VRB03KT P6SM BKN050=



000
FTUS41 KCAR 261120
TAFHUL
TAF
KHUL 261120Z 2612/2712 32003KT P6SM OVC012
     FM261400 35004KT P6SM SCT025 BKN040=



000
FTUS41 KCAR 261120
TAFBHB
TAF
KBHB 261120Z 2612/2712 VRB03KT P6SM OVC080
     FM261500 VRB03KT P6SM BKN050
      AMD LTD TO CLD VIS AND WIND=



000
FTUS41 KCAR 260523
TAFBHB
TAF
KBHB 260523Z 2606/2706 VRB03KT P6SM OVC070
     FM261500 VRB03KT P6SM BKN050
      AMD LTD TO CLD VIS AND WIND=



000
FTUS41 KCAR 260523
TAFCAR
TAF
KCAR 260523Z 2606/2706 29004KT P6SM OVC014
     FM261600 36007KT P6SM SCT025 BKN050
     FM270300 VRB03KT P6SM OVC007=



000
FTUS41 KCAR 260523
TAFBGR
TAF
KBGR 260523Z 2606/2706 26003KT P6SM BKN060
     FM261500 VRB03KT P6SM BKN050=



000
FTUS41 KCAR 260523
TAFPQI
TAF
KPQI 260523Z 2606/2706 31005KT P6SM BKN015
     FM260700 VRB03KT P6SM BKN008
     FM261500 36004KT P6SM SCT025 BKN050
      AMD LTD TO CLD VIS AND WIND=



000
FTUS41 KCAR 260523
TAFHUL
TAF
KHUL 260523Z 2606/2706 32003KT P6SM OVC070
     FM260800 32004KT P6SM BKN008
     FM261400 35004KT P6SM SCT025 BKN040=



000
FTUS41 KCAR 252320
TAFPQI
TAF
KPQI 252320Z 2600/2624 33005KT P6SM SCT070
     FM260700 VRB03KT P6SM BKN008
     FM261500 36004KT P6SM SCT025 BKN050
      AMD LTD TO CLD VIS AND WIND=



000
FTUS41 KCAR 252320
TAFCAR
TAF
KCAR 252320Z 2600/2624 30004KT P6SM SCT025 BKN060
     FM260600 34003KT P6SM VCSH BKN008 OVC020
     FM261000 34004KT P6SM OVC012
     FM261600 36007KT P6SM SCT025 BKN050=



000
FTUS41 KCAR 252320
TAFCAR
TAF
KCAR 252320Z 2600/2624 30004KT P6SM SCT025 BKN060
     FM260600 34003KT P6SM VCSH BKN008 OVC020
     FM261000 34004KT P6SM OVC012
     FM261600 36007KT P6SM SCT025 BKN050=



000
FTUS41 KCAR 252320
TAFBGR
TAF
KBGR 252320Z 2600/2624 31008KT P6SM SCT040 BKN060
     FM261500 VRB03KT P6SM BKN050=



000
FTUS41 KCAR 252320
TAFBHB
TAF
KBHB 252320Z 2600/2624 VRB03KT P6SM FEW060 OVC070
     FM261500 VRB03KT P6SM BKN050
      AMD LTD TO CLD VIS AND WIND=



000
FTUS41 KCAR 252320
TAFHUL
TAF
KHUL 252320Z 2600/2624 32003KT P6SM OVC060
      TEMPO 2600/2601 -SHRA OVC035
     FM260400 31004KT P6SM BKN015
     FM260800 32004KT P6SM BKN008
     FM261400 35004KT P6SM SCT025 BKN040=



000
FTUS41 KCAR 252320
TAFPQI
TAF
KPQI 252320Z 2600/2624 33005KT P6SM SCT070
     FM260700 VRB03KT P6SM BKN008
     FM261500 36004KT P6SM SCT025 BKN050
      AMD LTD TO CLD VIS AND WIND=



000
FTUS41 KCAR 252320
TAFBGR
TAF
KBGR 252320Z 2600/2624 31008KT P6SM SCT040 BKN060
     FM261500 VRB03KT P6SM BKN050=



000
FTUS41 KCAR 252320
TAFBHB
TAF
KBHB 252320Z 2600/2624 VRB03KT P6SM FEW060 OVC070
     FM261500 VRB03KT P6SM BKN050
      AMD LTD TO CLD VIS AND WIND=



000
FTUS41 KCAR 252320
TAFHUL
TAF
KHUL 252320Z 2600/2624 32003KT P6SM OVC060
      TEMPO 2600/2601 -SHRA OVC035
     FM260400 31004KT P6SM BKN015
     FM260800 32004KT P6SM BKN008
     FM261400 35004KT P6SM SCT025 BKN040=



000
FTUS41 KCAR 251728
TAFCAR
TAF
KCAR 251728Z 2518/2618 34006KT P6SM BKN015
     FM260600 34003KT P6SM BKN008
     FM261300 34004KT P6SM BKN015=



000
FTUS41 KCAR 251728
TAFPQI
TAF
KPQI 251728Z 2518/2618 32006KT P6SM BKN020
     FM260700 VRB03KT P6SM BKN008
      TEMPO 2612/2615 BKN015
     FM261500 36004KT P6SM BKN025
      AMD LTD TO CLD VIS AND WIND=



000
FTUS41 KCAR 251728
TAFHUL
TAF
KHUL 251728Z 2518/2618 35006KT P6SM BKN020
     FM260400 31004KT P6SM BKN015
     FM260800 32004KT P6SM BKN008
      TEMPO 2612/2614 BKN015
     FM261400 35004KT P6SM BKN025=



000
FTUS41 KCAR 251728
TAFBGR
TAF
KBGR 251728Z 2518/2618 33006KT P6SM BKN050
     FM261500 VRB03KT P6SM BKN050=



000
FTUS41 KCAR 251728
TAFBHB
TAF
KBHB 251728Z 2518/2618 34004KT P6SM BKN050
      AMD LTD TO CLD VIS AND WIND=



000
FTUS41 KCAR 251728
TAFPQI
TAF
KPQI 251728Z 2518/2618 32006KT P6SM BKN020
     FM260700 VRB03KT P6SM BKN008
      TEMPO 2612/2615 BKN015
     FM261500 36004KT P6SM BKN025
      AMD LTD TO CLD VIS AND WIND=



000
FTUS41 KCAR 251728
TAFHUL
TAF
KHUL 251728Z 2518/2618 35006KT P6SM BKN020
     FM260400 31004KT P6SM BKN015
     FM260800 32004KT P6SM BKN008
      TEMPO 2612/2614 BKN015
     FM261400 35004KT P6SM BKN025=



000
FTUS41 KCAR 251728
TAFBHB
TAF
KBHB 251728Z 2518/2618 34004KT P6SM BKN050
      AMD LTD TO CLD VIS AND WIND=



000
FTUS41 KCAR 251728
TAFBGR
TAF
KBGR 251728Z 2518/2618 33006KT P6SM BKN050
     FM261500 VRB03KT P6SM BKN050=



000
FTUS41 KCAR 251728
TAFCAR
TAF
KCAR 251728Z 2518/2618 34006KT P6SM BKN015
     FM260600 34003KT P6SM BKN008
     FM261300 34004KT P6SM BKN015=



000
FTUS41 KCAR 251128
TAFCAR
TAF
KCAR 251128Z 2512/2612 35004KT P6SM OVC050
     FM251500 36006KT P6SM OVC010
     FM251800 35006KT P6SM OVC015=



000
FTUS41 KCAR 251128
TAFHUL
TAF
KHUL 251128Z 2512/2612 35005KT 4SM BR OVC004
     FM251400 36004KT P6SM OVC010
     FM251800 35004KT P6SM OVC025=



000
FTUS41 KCAR 251128
TAFPQI
TAF
KPQI 251128Z 2512/2612 01005KT P6SM OVC060
     FM251500 35006KT P6SM OVC015
     FM251800 34006KT P6SM OVC025
      AMD LTD TO CLD VIS AND WIND=



000
FTUS41 KCAR 251128
TAFCAR
TAF
KCAR 251128Z 2512/2612 35004KT P6SM OVC050
     FM251500 36006KT P6SM OVC010
     FM251800 35006KT P6SM OVC015=



000
FTUS41 KCAR 251128
TAFPQI
TAF
KPQI 251128Z 2512/2612 01005KT P6SM OVC060
     FM251500 35006KT P6SM OVC015
     FM251800 34006KT P6SM OVC025
      AMD LTD TO CLD VIS AND WIND=



000
FTUS41 KCAR 251128
TAFBHB
TAF
KBHB 251128Z 2512/2612 VRB03KT P6SM BKN050
     FM251800 VRB03KT P6SM OVC035
      AMD LTD TO CLD VIS AND WIND=



000
FTUS41 KCAR 251128
TAFBGR
TAF
KBGR 251128Z 2512/2612 26005KT P6SM OVC050
     FM252100 34006KT P6SM OVC035=



000
FTUS41 KCAR 251128
TAFHUL
TAF
KHUL 251128Z 2512/2612 35005KT 4SM BR OVC004
     FM251400 36004KT P6SM OVC010
     FM251800 35004KT P6SM OVC025=



000
FTUS41 KCAR 251128
TAFBHB
TAF
KBHB 251128Z 2512/2612 VRB03KT P6SM BKN050
     FM251800 VRB03KT P6SM OVC035
      AMD LTD TO CLD VIS AND WIND=



000
FTUS41 KCAR 251128
TAFBGR
TAF
KBGR 251128Z 2512/2612 26005KT P6SM OVC050
     FM252100 34006KT P6SM OVC035=



000
FTUS41 KCAR 251029 AAB
TAFCAR
TAF AMD
KCAR 251029Z 2510/2606 36004KT P6SM OVC060
     FM251500 36006KT P6SM OVC010
     FM251800 35006KT P6SM OVC015=



000
FTUS41 KCAR 251028 AAA
TAFHUL
TAF AMD
KHUL 251028Z 2510/2606 24003KT 4SM BR OVC004
     FM251400 36004KT P6SM OVC010
     FM251600 35004KT P6SM OVC025=



000
FTUS41 KCAR 251028 AAA
TAFHUL
TAF AMD
KHUL 251028Z 2510/2606 24003KT 4SM BR OVC004
     FM251400 36004KT P6SM OVC010
     FM251600 35004KT P6SM OVC025=



000
FTUS41 KCAR 250532
TAFCAR
TAF
KCAR 250532Z 2506/2606 33005KT P6SM OVC015
     FM250800 36005KT P6SM OVC008
     FM251300 36006KT P6SM OVC010
     FM251500 35006KT P6SM OVC015=



000
FTUS41 KCAR 250532
TAFBHB
TAF
KBHB 250532Z 2506/2606 VRB03KT P6SM BKN070
     FM251100 30007KT P6SM OVC025
     FM251700 VRB03KT P6SM OVC035
      AMD LTD TO CLD VIS AND WIND=



000
FTUS41 KCAR 250532
TAFBGR
TAF
KBGR 250532Z 2506/2606 28005KT P6SM OVC050
     FM250900 31006KT P6SM VCSH OVC025
     FM251600 34006KT P6SM OVC035=



000
FTUS41 KCAR 250532
TAFHUL
TAF
KHUL 250532Z 2506/2606 24003KT P6SM OVC019
     FM251400 36004KT P6SM OVC010
     FM251600 35004KT P6SM OVC025=



000
FTUS41 KCAR 250532
TAFPQI
TAF
KPQI 250532Z 2506/2606 32006KT P6SM OVC012
     FM251100 01005KT P6SM OVC008
     FM251500 35006KT P6SM OVC015
     FM251600 34006KT P6SM OVC025
      AMD LTD TO CLD VIS AND WIND=



000
FTUS41 KCAR 250414 AAA
TAFCAR
TAF AMD
KCAR 250414Z 2504/2524 32004KT 5SM -SN BR OVC050
     FM250800 36005KT P6SM OVC008
     FM251300 36006KT P6SM OVC010
     FM251500 35006KT P6SM OVC015=



000
FTUS41 KCAR 250414 AAA
TAFCAR
TAF AMD
KCAR 250414Z 2504/2524 32004KT 5SM -SN BR OVC050
     FM250800 36005KT P6SM OVC008
     FM251300 36006KT P6SM OVC010
     FM251500 35006KT P6SM OVC015=



000
FTUS41 KCAR 242320
TAFCAR
TAF
KCAR 242320Z 2500/2524 31005KT P6SM -RA FEW008 BKN040 OVC045
     FM250200 01004KT 5SM -RASN OVC008
     FM250400 35004KT 3SM -SN BR OVC007
     FM250800 36005KT P6SM OVC008
     FM251300 36006KT P6SM OVC010
     FM251500 35006KT P6SM OVC015=



000
FTUS41 KCAR 242320
TAFBGR
TAF
KBGR 242320Z 2500/2524 30013G20KT P6SM VCSH BKN070
     FM250600 31006KT P6SM VCSH OVC025
     FM251600 34006KT P6SM OVC035=



000
FTUS41 KCAR 242320
TAFBHB
TAF
KBHB 242320Z 2500/2524 32006G15KT P6SM BKN060
     FM250400 27007KT P6SM VCSH OVC040
     FM251100 30007KT P6SM OVC025
     FM251700 VRB03KT P6SM OVC035
      AMD LTD TO CLD VIS AND WIND=



000
FTUS41 KCAR 242320
TAFHUL
TAF
KHUL 242320Z 2500/2524 30003KT 6SM -RA BR BKN009 OVC017
     FM250300 30006KT P6SM -RASN OVC008
     FM251400 36004KT P6SM OVC010
     FM251600 35004KT P6SM OVC025=



000
FTUS41 KCAR 242320
TAFPQI
TAF
KPQI 242320Z 2500/2524 31005KT P6SM -RA BKN012 OVC025
     FM250400 VRB03KT 3SM -RASN OVC008
     FM251100 01005KT P6SM OVC008
     FM251500 35006KT P6SM OVC015
     FM251600 34006KT P6SM OVC025
      AMD LTD TO CLD VIS AND WIND=



000
FTUS41 KCAR 241734
TAFBGR
TAF
KBGR 241734Z 2418/2518 31012G18KT P6SM OVC040
     FM250000 30008KT P6SM OVC050
     FM251100 31006KT P6SM OVC025
     FM251600 34006KT P6SM OVC035=



000
FTUS41 KCAR 241734
TAFHUL
TAF
KHUL 241734Z 2418/2518 32008KT P6SM -RA SCT015 OVC035
      TEMPO 2418/2422 3SM -RASN BR OVC015
     FM250000 31007KT P6SM -RA OVC015
     FM250300 30006KT P6SM -RASN OVC008
     FM251400 36004KT P6SM OVC010
     FM251600 35004KT P6SM OVC025=



000
FTUS41 KCAR 241734
TAFPQI
TAF
KPQI 241734Z 2418/2518 33007KT 6SM -RA SCT025 OVC035
      TEMPO 2418/2422 3SM -RASN BR OVC020
     FM242200 34005KT P6SM -RA OVC015
     FM250400 VRB03KT 3SM -RASN OVC008
     FM251100 01005KT P6SM OVC008
     FM251500 35006KT P6SM OVC015
     FM251600 34006KT P6SM OVC025
      AMD LTD TO CLD VIS AND WIND=



000
FTUS41 KCAR 241734
TAFCAR
TAF
KCAR 241734Z 2418/2518 34007KT P6SM -RA SCT025 OVC035
      TEMPO 2418/2422 3SM -RASN BR OVC020
     FM242200 34005KT P6SM -RA OVC015
     FM250400 01004KT 3SM -RASN OVC008
     FM251100 02005KT P6SM OVC008
     FM251300 01006KT P6SM OVC010
     FM251500 35006KT P6SM OVC015=



000
FTUS41 KCAR 241734
TAFBHB
TAF
KBHB 241734Z 2418/2518 32010G17KT P6SM SCT025 BKN035
     FM242200 30011KT P6SM OVC035
     FM250600 27007KT P6SM OVC045
     FM251100 30007KT P6SM OVC025
     FM251700 VRB03KT P6SM OVC030
      AMD LTD TO CLD VIS AND WIND=



000
FTUS41 KCAR 241537 AAB
TAFBHB
TAF AMD
KBHB 241537Z 2416/2512 30010KT P6SM -RA BKN015 OVC025
     FM241800 30008KT P6SM VCSH BKN040
     FM250000 30006KT P6SM OVC035
     FM250800 32006KT P6SM VCSH OVC025
      AMD LTD TO CLD VIS AND WIND=



000
FTUS41 KCAR 241456 AAA
TAFBHB
TAF AMD
KBHB 241456Z 2415/2512 33010G18KT P6SM -RA BKN015 OVC040
     FM241600 30008KT P6SM VCSH BKN040
     FM250000 30006KT P6SM OVC035
     FM250800 32006KT P6SM VCSH OVC025
      AMD LTD TO CLD VIS AND WIND=



000
FTUS41 KCAR 241455 AAB
TAFBGR
TAF AMD
KBGR 241455Z 2415/2512 30010G18KT P6SM -RA SCT012 OVC035
     FM241600 32008KT P6SM VCSH BKN040
     FM250000 30006KT P6SM OVC035
     FM250800 32006KT P6SM VCSH OVC025=



000
FTUS41 KCAR 241455 AAB
TAFBGR
TAF AMD
KBGR 241455Z 2415/2512 30010G18KT P6SM -RA SCT012 OVC035
     FM241600 32008KT P6SM VCSH BKN040
     FM250000 30006KT P6SM OVC035
     FM250800 32006KT P6SM VCSH OVC025=



000
FTUS41 KCAR 241349 AAB
TAFPQI
TAF AMD
KPQI 241349Z 2414/2512 33006KT 1 1/2SM -RASN OVC010
     FM241500 36006KT P6SM -RASN OVC015
     FM241600 36006KT P6SM VCSH OVC015
     FM250300 02006KT P6SM VCSH OVC010
     FM250800 36006KT 6SM -SN BR OVC010
      AMD LTD TO CLD VIS AND WIND=



000
FTUS41 KCAR 241344 AAB
TAFCAR
TAF AMD
KCAR 241344Z 2414/2512 35007KT 1SM -SN BR BKN007 OVC015
     FM241500 36006KT P6SM -RASN OVC015
     FM241600 36006KT P6SM VCSH OVC015
     FM250300 02006KT P6SM VCSH OVC008
     FM250800 36006KT 6SM -SN BR OVC010=



000
FTUS41 KCAR 241305 AAB
TAFCAR
TAF AMD
KCAR 241305Z 2413/2512 35007KT 1SM -SN BR SCT015 OVC025
      TEMPO 2413/2415 3/4SM -SN BR OVC006
     FM241500 36006KT P6SM -RASN OVC015
     FM241600 36006KT P6SM VCSH OVC015
     FM250300 02006KT P6SM VCSH OVC008
     FM250800 36006KT 6SM -SN BR OVC010=



000
FTUS41 KCAR 241305 AAB
TAFCAR
TAF AMD
KCAR 241305Z 2413/2512 35007KT 1SM -SN BR SCT015 OVC025
      TEMPO 2413/2415 3/4SM -SN BR OVC006
     FM241500 36006KT P6SM -RASN OVC015
     FM241600 36006KT P6SM VCSH OVC015
     FM250300 02006KT P6SM VCSH OVC008
     FM250800 36006KT 6SM -SN BR OVC010=



000
FTUS41 KCAR 241243 AAA
TAFBGR
TAF AMD
KBGR 241243Z 2413/2512 30006KT P6SM -RA BKN025 OVC035
     FM241400 30006KT P6SM -RA SCT025 OVC035
     FM241600 32008KT P6SM VCSH BKN040
     FM250000 30006KT P6SM OVC035
     FM250800 32006KT P6SM VCSH OVC025=



000
FTUS41 KCAR 241243 AAA
TAFBGR
TAF AMD
KBGR 241243Z 2413/2512 30006KT P6SM -RA BKN025 OVC035
     FM241400 30006KT P6SM -RA SCT025 OVC035
     FM241600 32008KT P6SM VCSH BKN040
     FM250000 30006KT P6SM OVC035
     FM250800 32006KT P6SM VCSH OVC025=



000
FTUS41 KCAR 241242 AAA
TAFPQI
TAF AMD
KPQI 241242Z 2413/2512 36006KT 5SM -RASN SCT015 OVC025
      TEMPO 2413/2415 5SM -SN BR OVC008
     FM241500 36006KT P6SM -RASN OVC015
     FM241600 36006KT P6SM VCSH OVC015
     FM250300 02006KT P6SM VCSH OVC010
     FM250800 36006KT 6SM -SN BR OVC010
      AMD LTD TO CLD VIS AND WIND=



000
FTUS41 KCAR 241242 AAA
TAFPQI
TAF AMD
KPQI 241242Z 2413/2512 36006KT 5SM -RASN SCT015 OVC025
      TEMPO 2413/2415 5SM -SN BR OVC008
     FM241500 36006KT P6SM -RASN OVC015
     FM241600 36006KT P6SM VCSH OVC015
     FM250300 02006KT P6SM VCSH OVC010
     FM250800 36006KT 6SM -SN BR OVC010
      AMD LTD TO CLD VIS AND WIND=



000
FTUS41 KCAR 241240 AAA
TAFCAR
TAF AMD
KCAR 241240Z 2413/2512 01011KT 5SM -RASN BR SCT015 OVC025
      TEMPO 2413/2415 1SM -SN BR BKN008 OVC015
     FM241500 36006KT P6SM -RASN OVC015
     FM241600 36006KT P6SM VCSH OVC015
     FM250300 02006KT P6SM VCSH OVC008
     FM250800 36006KT 6SM -SN BR OVC010=



000
FTUS41 KCAR 241240 AAA
TAFCAR
TAF AMD
KCAR 241240Z 2413/2512 01011KT 5SM -RASN BR SCT015 OVC025
      TEMPO 2413/2415 1SM -SN BR BKN008 OVC015
     FM241500 36006KT P6SM -RASN OVC015
     FM241600 36006KT P6SM VCSH OVC015
     FM250300 02006KT P6SM VCSH OVC008
     FM250800 36006KT 6SM -SN BR OVC010=



000
FTUS41 KCAR 241132
TAFBGR
TAF
KBGR 241132Z 2412/2512 30006KT 4SM -RASN BR SCT025 OVC035
      TEMPO 2412/2414 2SM -RASN BR SCT015 OVC025
     FM241400 30006KT P6SM -RA SCT025 OVC035
     FM241600 32008KT P6SM VCSH BKN040
     FM250000 30006KT P6SM OVC035
     FM250800 32006KT P6SM VCSH OVC025=



000
FTUS41 KCAR 241132
TAFCAR
TAF
KCAR 241132Z 2412/2512 36006KT 6SM -SN BR SCT015 OVC025
      TEMPO 2412/2414 3SM -SN BR SCT008 OVC015
     FM241400 36006KT P6SM -RASN OVC015
     FM241600 36006KT P6SM VCSH OVC015
     FM250300 02006KT P6SM VCSH OVC008
     FM250800 36006KT 6SM -SN BR OVC010=



000
FTUS41 KCAR 241132
TAFHUL
TAF
KHUL 241132Z 2412/2512 34006KT P6SM VCSH OVC010
      TEMPO 2412/2414 6SM -SN BR OVC008
     FM241400 34006KT P6SM VCSH OVC020
     FM250300 32006KT P6SM VCSH OVC010=



000
FTUS41 KCAR 241132
TAFBHB
TAF
KBHB 241132Z 2412/2512 30006KT P6SM VCSH SCT015 OVC025
      TEMPO 2412/2414 6SM -RASN BR BKN008 OVC015
     FM241600 30008KT P6SM VCSH BKN040
     FM250000 30006KT P6SM OVC035
     FM250800 32006KT P6SM VCSH OVC025
      AMD LTD TO CLD VIS AND WIND=



000
FTUS41 KCAR 241132
TAFPQI
TAF
KPQI 241132Z 2412/2512 36006KT P6SM VCSH SCT015 OVC025
      TEMPO 2412/2414 5SM -SN BR SCT008 OVC015
     FM241400 36006KT P6SM -RASN OVC015
     FM241600 36006KT P6SM VCSH OVC015
     FM250300 02006KT P6SM VCSH OVC010
     FM250800 36006KT 6SM -SN BR OVC010
      AMD LTD TO CLD VIS AND WIND=



000
FTUS41 KCAR 241132
TAFBHB
TAF
KBHB 241132Z 2412/2512 30006KT P6SM VCSH SCT015 OVC025
      TEMPO 2412/2414 6SM -RASN BR BKN008 OVC015
     FM241600 30008KT P6SM VCSH BKN040
     FM250000 30006KT P6SM OVC035
     FM250800 32006KT P6SM VCSH OVC025
      AMD LTD TO CLD VIS AND WIND=



000
FTUS41 KCAR 241132
TAFPQI
TAF
KPQI 241132Z 2412/2512 36006KT P6SM VCSH SCT015 OVC025
      TEMPO 2412/2414 5SM -SN BR SCT008 OVC015
     FM241400 36006KT P6SM -RASN OVC015
     FM241600 36006KT P6SM VCSH OVC015
     FM250300 02006KT P6SM VCSH OVC010
     FM250800 36006KT 6SM -SN BR OVC010
      AMD LTD TO CLD VIS AND WIND=



000
FTUS41 KCAR 241132
TAFHUL
TAF
KHUL 241132Z 2412/2512 34006KT P6SM VCSH OVC010
      TEMPO 2412/2414 6SM -SN BR OVC008
     FM241400 34006KT P6SM VCSH OVC020
     FM250300 32006KT P6SM VCSH OVC010=



000
FTUS41 KCAR 241132
TAFCAR
TAF
KCAR 241132Z 2412/2512 36006KT 6SM -SN BR SCT015 OVC025
      TEMPO 2412/2414 3SM -SN BR SCT008 OVC015
     FM241400 36006KT P6SM -RASN OVC015
     FM241600 36006KT P6SM VCSH OVC015
     FM250300 02006KT P6SM VCSH OVC008
     FM250800 36006KT 6SM -SN BR OVC010=



000
FTUS41 KCAR 241132
TAFBGR
TAF
KBGR 241132Z 2412/2512 30006KT 4SM -RASN BR SCT025 OVC035
      TEMPO 2412/2414 2SM -RASN BR SCT015 OVC025
     FM241400 30006KT P6SM -RA SCT025 OVC035
     FM241600 32008KT P6SM VCSH BKN040
     FM250000 30006KT P6SM OVC035
     FM250800 32006KT P6SM VCSH OVC025=



000
FTUS41 KCAR 241036 AAA
TAFBGR
TAF AMD
KBGR 241036Z 2411/2506 30006KT P6SM -SN SCT025 OVC035
      TEMPO 2411/2414 5SM -SN BR SCT015 OVC025
     FM241400 30006KT P6SM -RA SCT025 OVC035
     FM241600 32008KT P6SM VCSH BKN040
     FM250000 30006KT P6SM OVC035=



000
FTUS41 KCAR 241008 AAA
TAFCAR
TAF AMD
KCAR 241008Z 2410/2506 02006KT 4SM -SN BR SCT015 OVC025
      TEMPO 2410/2414 1 1/2SM -SN BR SCT008 OVC015
     FM241400 36006KT P6SM VCSH OVC015
     FM250300 02006KT P6SM VCSH OVC008=



000
FTUS41 KCAR 240527
TAFCAR
TAF
KCAR 240527Z 2406/2506 02006KT P6SM VCSH OVC010
      TEMPO 2406/2410 6SM -RASN BR OVC008
     FM241400 36006KT P6SM VCSH OVC015
     FM250300 02006KT P6SM VCSH OVC008=



000
FTUS41 KCAR 240527
TAFBGR
TAF
KBGR 240527Z 2406/2506 34006KT P6SM VCSH SCT025 OVC040
      TEMPO 2406/2410 5SM -RASN BR SCT015 OVC025
     FM241600 32008KT P6SM VCSH BKN040
     FM250000 30006KT P6SM OVC035=



000
FTUS41 KCAR 240527
TAFBHB
TAF
KBHB 240527Z 2406/2506 32006KT P6SM VCSH OVC010
      TEMPO 2406/2410 6SM -RA BR OVC008
     FM241000 32006KT P6SM VCSH OVC020
     FM241500 32008KT P6SM VCSH BKN040
     FM250000 30006KT P6SM OVC035
      AMD LTD TO CLD VIS AND WIND=



000
FTUS41 KCAR 240527
TAFCAR
TAF
KCAR 240527Z 2406/2506 02006KT P6SM VCSH OVC010
      TEMPO 2406/2410 6SM -RASN BR OVC008
     FM241400 36006KT P6SM VCSH OVC015
     FM250300 02006KT P6SM VCSH OVC008=



000
FTUS41 KCAR 240527
TAFPQI
TAF
KPQI 240527Z 2406/2506 02006KT P6SM VCSH OVC010
      TEMPO 2406/2410 6SM -RASN BR OVC008
     FM241400 36006KT P6SM VCSH OVC015
     FM250300 02006KT P6SM VCSH OVC008
      AMD LTD TO CLD VIS AND WIND=



000
FTUS41 KCAR 240527
TAFHUL
TAF
KHUL 240527Z 2406/2506 36006KT P6SM VCSH OVC008
      TEMPO 2406/2410 5SM -RASN BR OVC004
     FM241200 34006KT P6SM VCSH OVC010
     FM241600 32006KT P6SM VCSH OVC020
     FM250300 32006KT P6SM VCSH OVC010=



000
FTUS41 KCAR 240437 AAA
TAFCAR
TAF AMD
KCAR 240437Z 2405/2424 02006KT P6SM VCSH OVC010
      TEMPO 2405/2408 6SM -RASN BR OVC008
     FM240800 01004KT 3SM -RASN BR OVC006
     FM241200 35004KT 5SM -RA OVC008
     FM241400 34005KT 5SM -RA OVC015=



000
FTUS41 KCAR 240437 AAA
TAFCAR
TAF AMD
KCAR 240437Z 2405/2424 02006KT P6SM VCSH OVC010
      TEMPO 2405/2408 6SM -RASN BR OVC008
     FM240800 01004KT 3SM -RASN BR OVC006
     FM241200 35004KT 5SM -RA OVC008
     FM241400 34005KT 5SM -RA OVC015=



000
FTUS41 KCAR 240426 AAA
TAFHUL
TAF AMD
KHUL 240426Z 2404/2424 32006KT P6SM VCSH SCT003 OVC010
      TEMPO 2404/2408 5SM -RASN BR OVC003
     FM240800 35004KT 3SM -RASN BR OVC008
     FM241200 34005KT 3SM -RA BR OVC008
     FM241700 33006KT P6SM -RA OVC025=



000
FTUS41 KCAR 240423 AAA
TAFBHB
TAF AMD
KBHB 240423Z 2404/2424 32006KT P6SM VCSH OVC010
      TEMPO 2404/2406 -SHRA
     FM240600 26007KT P6SM VCSH OVC025
     FM241500 29005KT P6SM SCT025 BKN040 OVC070
      AMD LTD TO CLD VIS AND WIND=



000
FTUS41 KCAR 240328 AAA
TAFPQI
TAF AMD
KPQI 240328Z 2403/2424 08006KT P6SM VCSH SCT008 OVC015
      TEMPO 2403/2406 6SM -RA BR OVC008
     FM240900 35004KT 3SM -RASN OVC006
     FM241200 34004KT 6SM -RA OVC008
     FM241300 33005KT 6SM -RA OVC015
      AMD LTD TO CLD VIS AND WIND=



000
FTUS41 KCAR 240323 AAA
TAFBGR
TAF AMD
KBGR 240323Z 2403/2424 33008KT P6SM -RA SCT015 OVC025
      TEMPO 2403/2406 5SM -RA BR
     FM240600 34006KT P6SM VCSH BKN025 OVC040
     FM241500 29006KT P6SM VCSH SCT025 BKN040 OVC070=



    US Dept of Commerce
    National Oceanic and Atmospheric Administration
    National Weather Service
    1325 East West Highway
    Silver Spring, MD 20910
    Page Author: NWS Internet Services Team
Disclaimer
Information Quality
Credits
Glossary
Privacy Policy
Freedom of Information Act (FOIA)
About Us
Career Opportunities